createdAt,value
2018-12-25T00:02:29.113Z,13.43
2018-12-25T00:07:31.201Z,9.85
2018-12-25T00:12:33.312Z,10.32
2018-12-25T00:17:35.442Z,8.23
2018-12-25T00:22:37.527Z,10.43
2018-12-25T00:27:39.574Z,8.38
2018-12-25T00:32:41.670Z,8.05
2018-12-25T00:37:43.914Z,7.35
2018-12-25T00:42:45.842Z,10.55
2018-12-25T00:47:47.954Z,8.83
2018-12-25T00:52:49.973Z,7.62
2018-12-25T00:57:52.041Z,7.08
2018-12-25T01:02:54.125Z,10.03
2018-12-25T01:07:56.151Z,6.97
2018-12-25T01:12:58.204Z,7.47
2018-12-25T01:18:00.238Z,10.70
2018-12-25T01:23:02.273Z,7.58
2018-12-25T01:28:04.727Z,9.15
2018-12-25T01:33:06.923Z,9.25
2018-12-25T01:38:08.930Z,8.68
2018-12-25T01:43:11.291Z,10.95
2018-12-25T01:48:13.352Z,9.93
2018-12-25T01:53:15.506Z,9.78
2018-12-25T01:58:17.572Z,9.20
2018-12-25T02:03:19.556Z,8.58
2018-12-25T02:08:21.771Z,9.88
2018-12-25T02:13:23.811Z,9.73
2018-12-25T02:18:26.009Z,9.13
2018-12-25T02:23:28.043Z,10.28
2018-12-25T02:28:30.071Z,7.58
2018-12-25T02:33:32.101Z,7.60
2018-12-25T02:38:34.194Z,9.18
2018-12-25T02:43:36.608Z,8.05
2018-12-25T02:48:38.800Z,8.18
2018-12-25T02:53:40.806Z,9.33
2018-12-25T02:58:44.669Z,9.18
2018-12-25T03:03:46.715Z,9.60
2018-12-25T03:08:49.049Z,13.28
2018-12-25T03:13:51.043Z,7.80
2018-12-25T03:18:53.076Z,11.55
2018-12-25T03:23:55.143Z,11.73
2018-12-25T03:28:57.216Z,8.58
2018-12-25T03:33:59.228Z,9.85
2018-12-25T03:39:01.331Z,11.73
2018-12-25T03:44:03.353Z,11.93
2018-12-25T03:49:05.432Z,12.90
2018-12-25T03:54:07.498Z,12.55
2018-12-25T03:59:09.509Z,10.03
2018-12-25T04:04:11.540Z,14.13
2018-12-25T04:09:13.529Z,10.65
2018-12-25T04:14:15.736Z,10.30
2018-12-25T04:19:17.954Z,13.43
2018-12-25T04:24:19.998Z,13.30
2018-12-25T04:29:22.073Z,9.35
2018-12-25T04:34:24.075Z,10.58
2018-12-25T04:39:26.452Z,13.95
2018-12-25T04:44:28.759Z,10.50
2018-12-25T04:49:30.942Z,15.10
2018-12-25T04:54:32.947Z,11.33
2018-12-25T04:59:35.049Z,9.95
2018-12-25T05:04:37.114Z,8.63
2018-12-25T05:09:39.134Z,9.93
2018-12-25T05:14:41.232Z,12.07
2018-12-25T05:19:43.275Z,11.65
2018-12-25T05:24:45.324Z,14.15
2018-12-25T05:29:47.370Z,13.13
2018-12-25T05:34:49.695Z,13.90
2018-12-25T05:39:51.770Z,10.53
2018-12-25T05:44:53.840Z,11.75
2018-12-25T05:49:55.846Z,12.23
2018-12-25T05:54:57.933Z,11.35
2018-12-25T06:00:00.291Z,12.55
2018-12-25T06:05:02.340Z,12.73
2018-12-25T06:10:04.521Z,11.90
2018-12-25T06:15:06.581Z,13.55
2018-12-25T06:20:08.604Z,11.22
2018-12-25T06:25:10.791Z,9.80
2018-12-25T06:30:13.101Z,13.03
2018-12-25T06:35:15.163Z,15.55
2018-12-25T06:40:17.209Z,13.22
2018-12-25T06:45:19.248Z,14.00
2018-12-25T06:50:21.706Z,11.75
2018-12-25T06:55:24.999Z,15.32
2018-12-25T07:00:26.991Z,15.40
2018-12-25T07:05:29.033Z,11.30
2018-12-25T07:10:31.095Z,13.95
2018-12-25T07:15:33.561Z,14.60
2018-12-25T07:20:36.001Z,12.80
2018-12-25T07:25:38.041Z,11.95
2018-12-25T07:30:40.224Z,12.82
2018-12-25T07:35:42.242Z,14.07
2018-12-25T07:40:44.288Z,14.93
2018-12-25T07:45:46.254Z,13.40
2018-12-25T07:50:48.372Z,13.58
2018-12-25T07:55:50.934Z,19.20
2018-12-25T08:00:52.981Z,17.82
2018-12-25T08:05:54.976Z,15.45
2018-12-25T08:10:57.232Z,13.80
2018-12-25T08:15:59.267Z,15.68
2018-12-25T08:21:01.306Z,15.03
2018-12-25T08:26:03.344Z,12.78
2018-12-25T08:31:05.360Z,18.10
2018-12-25T08:36:07.381Z,15.98
2018-12-25T08:41:09.822Z,16.00
2018-12-25T08:46:11.853Z,15.20
2018-12-25T08:51:13.931Z,15.68
2018-12-25T08:56:16.119Z,16.97
2018-12-25T09:01:18.163Z,15.72
2018-12-25T09:06:20.394Z,17.77
2018-12-25T09:11:22.723Z,15.15
2018-12-25T09:16:26.659Z,15.18
2018-12-25T09:21:28.706Z,13.65
2018-12-25T09:26:30.674Z,15.98
2018-12-25T09:31:32.661Z,17.07
2018-12-25T09:36:34.712Z,14.80
2018-12-25T09:41:36.679Z,15.88
2018-12-25T09:46:38.673Z,15.50
2018-12-25T09:51:40.744Z,15.93
2018-12-25T09:56:43.010Z,16.25
2018-12-25T10:01:45.137Z,17.35
2018-12-25T10:06:47.180Z,15.28
2018-12-25T10:11:49.542Z,15.18
2018-12-25T10:16:52.010Z,17.67
2018-12-25T10:21:54.015Z,17.57
2018-12-25T10:26:56.049Z,18.30
2018-12-25T10:31:58.101Z,15.72
2018-12-25T10:37:02.190Z,19.75
2018-12-25T10:42:04.287Z,17.65
2018-12-25T10:47:06.328Z,17.50
2018-12-25T10:52:11.801Z,19.77
2018-12-25T10:57:12.414Z,16.27
2018-12-25T11:02:14.750Z,20.80
2018-12-25T11:07:16.884Z,19.02
2018-12-25T11:12:19.067Z,21.05
2018-12-25T11:17:21.061Z,18.75
2018-12-25T11:22:23.105Z,17.73
2018-12-25T11:27:25.138Z,18.40
2018-12-25T11:32:27.197Z,17.42
2018-12-25T11:37:29.245Z,22.85
2018-12-25T11:42:31.292Z,15.95
2018-12-25T11:47:33.318Z,17.45
2018-12-25T11:52:35.550Z,17.67
2018-12-25T11:57:37.619Z,55.78
2018-12-25T12:02:39.605Z,27.93
2018-12-25T12:07:41.672Z,22.42
2018-12-25T12:12:43.736Z,18.00
2018-12-25T12:17:48.311Z,17.27
2018-12-25T12:22:50.380Z,19.65
2018-12-25T12:27:53.111Z,17.45
2018-12-25T12:32:55.111Z,18.37
2018-12-25T12:37:57.277Z,18.20
2018-12-25T12:42:59.712Z,18.45
2018-12-25T12:48:01.771Z,17.05
2018-12-25T12:53:04.173Z,19.92
2018-12-25T12:58:07.900Z,16.90
2018-12-25T13:03:09.945Z,16.77
2018-12-25T13:08:12.192Z,17.57
2018-12-25T13:13:14.231Z,20.08
2018-12-25T13:18:16.433Z,19.30
2018-12-25T13:23:18.420Z,15.68
2018-12-25T13:28:20.604Z,19.35
2018-12-25T13:33:22.967Z,19.20
2018-12-25T13:38:25.019Z,21.90
2018-12-25T13:43:27.132Z,21.10
2018-12-25T13:48:29.178Z,19.55
2018-12-25T13:53:31.570Z,20.55
2018-12-25T13:58:33.594Z,18.77
2018-12-25T14:03:35.654Z,20.12
2018-12-25T14:08:37.685Z,17.67
2018-12-25T14:13:39.653Z,17.67
2018-12-25T14:18:41.687Z,19.77
2018-12-25T14:23:43.748Z,17.62
2018-12-25T14:28:45.749Z,18.95
2018-12-25T14:33:47.777Z,18.27
2018-12-25T14:38:49.776Z,16.57
2018-12-25T14:43:51.743Z,16.67
2018-12-25T14:48:53.759Z,19.35
2018-12-25T14:53:55.775Z,19.27
2018-12-25T14:58:58.067Z,21.27
2018-12-25T15:04:00.119Z,15.98
2018-12-25T15:09:03.827Z,18.45
2018-12-25T15:14:05.832Z,19.42
2018-12-25T15:19:07.878Z,16.95
2018-12-25T15:24:09.856Z,17.27
2018-12-25T15:29:11.877Z,16.65
2018-12-25T15:34:13.900Z,18.75
2018-12-25T15:39:15.988Z,20.25
2018-12-25T15:44:18.029Z,20.97
2018-12-25T15:49:20.084Z,19.80
2018-12-25T15:54:22.306Z,19.92
2018-12-25T15:59:24.504Z,19.87
2018-12-25T16:04:26.532Z,20.20
2018-12-25T16:09:28.580Z,20.40
2018-12-25T16:14:30.582Z,20.92
2018-12-25T16:19:32.553Z,23.47
2018-12-25T16:24:34.591Z,23.35
2018-12-25T16:29:36.755Z,23.90
2018-12-25T16:34:38.862Z,23.40
2018-12-25T16:39:40.891Z,28.62
2018-12-25T16:44:43.351Z,25.55
2018-12-25T16:49:45.331Z,27.15
2018-12-25T16:54:47.432Z,25.62
2018-12-25T16:59:49.778Z,26.42
2018-12-25T17:04:52.047Z,29.00
2018-12-25T17:09:54.078Z,27.10
2018-12-25T17:14:56.311Z,25.50
2018-12-25T17:19:58.314Z,30.25
2018-12-25T17:25:00.821Z,23.95
2018-12-25T17:30:03.697Z,26.27
2018-12-25T17:35:06.081Z,26.10
2018-12-25T17:40:08.298Z,32.67
2018-12-25T17:45:10.330Z,26.82
2018-12-25T17:50:12.722Z,30.32
2018-12-25T17:55:15.365Z,25.82
2018-12-25T18:00:17.353Z,25.85
2018-12-25T18:05:19.390Z,28.50
2018-12-25T18:10:23.212Z,23.25
2018-12-25T18:15:25.270Z,26.62
2018-12-25T18:20:27.329Z,22.58
2018-12-25T18:25:29.812Z,28.47
2018-12-25T18:30:31.764Z,22.87
2018-12-25T18:35:34.173Z,28.17
2018-12-25T18:40:36.232Z,23.70
2018-12-25T18:45:38.206Z,24.15
2018-12-25T18:50:40.306Z,26.70
2018-12-25T18:55:42.366Z,23.00
2018-12-25T19:00:45.273Z,24.57
2018-12-25T19:05:47.467Z,24.57
2018-12-25T19:10:49.550Z,24.50
2018-12-25T19:15:54.575Z,23.55
2018-12-25T19:20:56.966Z,25.50
2018-12-25T19:25:59.025Z,27.55
2018-12-25T19:31:01.359Z,22.02
2018-12-25T19:36:03.586Z,25.90
2018-12-25T19:41:05.593Z,21.90
2018-12-25T19:46:07.660Z,20.75
2018-12-25T19:51:09.741Z,24.30
2018-12-25T19:56:12.041Z,24.15
2018-12-25T20:01:14.405Z,24.75
2018-12-25T20:07:16.791Z,23.50
2018-12-25T20:13:00.947Z,21.90
2018-12-25T20:18:47.786Z,23.45
2018-12-25T20:24:19.543Z,21.62
2018-12-25T20:30:00.335Z,23.40
2018-12-25T20:35:44.121Z,20.92
2018-12-25T20:41:29.471Z,21.12
2018-12-25T20:47:09.115Z,21.80
2018-12-25T20:52:57.341Z,19.92
2018-12-25T20:58:36.330Z,22.45
2018-12-25T21:04:21.950Z,23.15
2018-12-25T21:10:16.029Z,23.02
2018-12-25T21:16:02.543Z,23.70
2018-12-25T21:21:43.734Z,24.63
2018-12-25T21:27:22.338Z,21.87
2018-12-25T21:32:24.801Z,23.18
2018-12-25T21:37:28.914Z,27.40
2018-12-25T21:42:31.436Z,24.55
2018-12-25T21:47:33.760Z,23.73
2018-12-25T21:52:36.361Z,24.30
2018-12-25T21:57:38.842Z,24.77
2018-12-25T22:02:41.233Z,29.18
2018-12-25T22:07:43.291Z,26.68
2018-12-25T22:12:45.374Z,24.27
2018-12-25T22:17:47.435Z,23.77
2018-12-25T22:22:49.461Z,22.65
2018-12-25T22:27:51.689Z,24.23
2018-12-25T22:32:53.727Z,23.18
2018-12-25T22:37:55.756Z,26.10
2018-12-25T22:42:57.789Z,23.42
2018-12-25T22:47:59.897Z,27.35
2018-12-25T22:53:01.998Z,26.60
2018-12-25T22:58:04.300Z,29.52
2018-12-25T23:03:06.365Z,24.37
2018-12-25T23:08:08.731Z,26.68
2018-12-25T23:13:11.963Z,24.87
2018-12-25T23:18:14.143Z,23.98
2018-12-25T23:23:16.196Z,27.30
2018-12-25T23:28:18.273Z,26.70
2018-12-25T23:33:20.264Z,25.77
2018-12-25T23:38:22.427Z,25.45
2018-12-25T23:43:24.387Z,27.90
2018-12-25T23:48:26.451Z,25.48
2018-12-25T23:53:28.464Z,31.23
2018-12-25T23:58:30.610Z,30.32
